Airport ID:KRTS
Update Time (UTC):20/07/2019 07:43
Wind Speed (Knots):3
Wind Direction (Magnetic):200
Temperature (°C):18
Dew Point (°C):4
Humidity (%):37
Altimeter (inHg):30.07
Density Altitude (Feet):6500
Visibility (Miles):10+
Clouds (Hundreds of feet):CLR
Present Weather:
METAR:METAR KRTS 200740Z AUTO 00000KT 10SM CLR 18/04 A3007 RMK AO2

The data displayed is for advisory purposes only and is not to be used for flight planning or operations.

This page is not automatically refreshed. Reload the page to see current data.